sensor_id;sensor_type;location;lat;lon;timestamp;pressure;altitude;pressure_sealevel;temperature;humidity
72414;BME280;60995;52.154;4.498;2023-04-02T00:01:39;101266.94;;;8.38;77.16
72414;BME280;60995;52.154;4.498;2023-04-02T00:08:47;101269.34;;;8.67;75.77
72414;BME280;60995;52.154;4.498;2023-04-02T00:11:04;101274.69;;;8.43;76.39
72414;BME280;60995;52.154;4.498;2023-04-02T00:13:45;101282.28;;;8.51;75.87
72414;BME280;60995;52.154;4.498;2023-04-02T00:16:07;101284.81;;;8.65;75.73
72414;BME280;60995;52.154;4.498;2023-04-02T00:18:28;101287.94;;;8.35;76.12
72414;BME280;60995;52.154;4.498;2023-04-02T00:20:49;101283.69;;;8.43;75.72
72414;BME280;60995;52.154;4.498;2023-04-02T00:23:20;101291.19;;;8.27;76.04
72414;BME280;60995;52.154;4.498;2023-04-02T00:25:39;101289.19;;;8.55;75.72
72414;BME280;60995;52.154;4.498;2023-04-02T00:27:59;101297.78;;;8.49;75.42
72414;BME280;60995;52.154;4.498;2023-04-02T00:30:15;101306.72;;;8.36;75.72
72414;BME280;60995;52.154;4.498;2023-04-02T00:32:33;101311.50;;;8.20;75.58
72414;BME280;60995;52.154;4.498;2023-04-02T00:34:54;101299.38;;;8.38;75.42
72414;BME280;60995;52.154;4.498;2023-04-02T00:37:16;101314.19;;;8.46;75.16
72414;BME280;60995;52.154;4.498;2023-04-02T00:39:38;101328.59;;;8.33;75.20
72414;BME280;60995;52.154;4.498;2023-04-02T00:41:58;101321.66;;;8.29;75.64
72414;BME280;60995;52.154;4.498;2023-04-02T00:44:20;101324.91;;;8.47;75.58
72414;BME280;60995;52.154;4.498;2023-04-02T00:46:41;101327.03;;;8.55;75.57
72414;BME280;60995;52.154;4.498;2023-04-02T00:49:07;101325.56;;;8.25;75.67
72414;BME280;60995;52.154;4.498;2023-04-02T00:51:39;101335.53;;;8.24;76.00
72414;BME280;60995;52.154;4.498;2023-04-02T00:54:03;101334.09;;;8.32;75.58
72414;BME280;60995;52.154;4.498;2023-04-02T00:56:28;101344.84;;;8.07;76.45
72414;BME280;60995;52.154;4.498;2023-04-02T00:58:52;101348.50;;;8.06;76.16
72414;BME280;60995;52.154;4.498;2023-04-02T01:01:20;101355.66;;;8.07;75.88
72414;BME280;60995;52.154;4.498;2023-04-02T01:03:39;101352.84;;;7.96;76.21
72414;BME280;60995;52.154;4.498;2023-04-02T01:06:00;101363.53;;;7.98;75.57
72414;BME280;60995;52.154;4.498;2023-04-02T01:14:08;101377.59;;;8.28;75.34
72414;BME280;60995;52.154;4.498;2023-04-02T01:16:57;101375.72;;;8.29;74.81
72414;BME280;60995;52.154;4.498;2023-04-02T01:22:36;101385.91;;;8.00;75.44
72414;BME280;60995;52.154;4.498;2023-04-02T01:25:03;101391.19;;;7.88;75.87
72414;BME280;60995;52.154;4.498;2023-04-02T01:27:38;101390.13;;;8.04;75.42
72414;BME280;60995;52.154;4.498;2023-04-02T01:30:01;101400.28;;;8.00;75.03
72414;BME280;60995;52.154;4.498;2023-04-02T01:32:24;101406.22;;;8.05;75.07
72414;BME280;60995;52.154;4.498;2023-04-02T01:34:45;101386.13;;;8.09;74.92
72414;BME280;60995;52.154;4.498;2023-04-02T01:40:25;101413.34;;;7.81;75.43
72414;BME280;60995;52.154;4.498;2023-04-02T01:43:29;101420.72;;;8.04;75.01
72414;BME280;60995;52.154;4.498;2023-04-02T01:45:52;101417.03;;;8.05;74.82
72414;BME280;60995;52.154;4.498;2023-04-02T01:48:15;101419.84;;;7.91;75.24
72414;BME280;60995;52.154;4.498;2023-04-02T01:50:37;101421.34;;;7.95;74.69
72414;BME280;60995;52.154;4.498;2023-04-02T01:52:59;101430.44;;;7.94;74.40
72414;BME280;60995;52.154;4.498;2023-04-02T01:55:24;101424.13;;;7.81;74.13
72414;BME280;60995;52.154;4.498;2023-04-02T01:57:49;101427.94;;;7.91;74.33
72414;BME280;60995;52.154;4.498;2023-04-02T02:00:10;101444.94;;;8.06;73.81
72414;BME280;60995;52.154;4.498;2023-04-02T02:02:29;101448.97;;;7.73;74.28
72414;BME280;60995;52.154;4.498;2023-04-02T02:04:46;101448.81;;;7.89;74.24
72414;BME280;60995;52.154;4.498;2023-04-02T02:07:04;101448.59;;;7.92;74.43
72414;BME280;60995;52.154;4.498;2023-04-02T02:09:22;101454.22;;;7.89;74.33
72414;BME280;60995;52.154;4.498;2023-04-02T02:11:41;101456.78;;;7.77;74.95
72414;BME280;60995;52.154;4.498;2023-04-02T02:14:00;101468.38;;;7.80;74.61
72414;BME280;60995;52.154;4.498;2023-04-02T02:16:21;101468.88;;;7.72;74.56
72414;BME280;60995;52.154;4.498;2023-04-02T02:18:39;101473.28;;;7.73;74.63
72414;BME280;60995;52.154;4.498;2023-04-02T02:20:58;101465.84;;;7.76;74.79
72414;BME280;60995;52.154;4.498;2023-04-02T02:23:20;101473.00;;;7.77;74.87
72414;BME280;60995;52.154;4.498;2023-04-02T02:25:37;101485.50;;;7.66;74.57
72414;BME280;60995;52.154;4.498;2023-04-02T02:30:45;101492.69;;;7.80;74.81
72414;BME280;60995;52.154;4.498;2023-04-02T02:41:13;101508.88;;;7.52;75.10
72414;BME280;60995;52.154;4.498;2023-04-02T02:43:45;101525.28;;;7.49;74.94
72414;BME280;60995;52.154;4.498;2023-04-02T02:46:21;101522.50;;;7.36;74.61
72414;BME280;60995;52.154;4.498;2023-04-02T02:48:40;101522.50;;;7.36;74.53
72414;BME280;60995;52.154;4.498;2023-04-02T02:50:59;101524.28;;;7.23;74.95
72414;BME280;60995;52.154;4.498;2023-04-02T02:53:21;101534.50;;;7.18;75.31
72414;BME280;60995;52.154;4.498;2023-04-02T02:55:39;101521.56;;;7.23;75.50
72414;BME280;60995;52.154;4.498;2023-04-02T02:58:16;101547.97;;;7.32;74.74
72414;BME280;60995;52.154;4.498;2023-04-02T03:00:38;101543.09;;;7.10;75.53
72414;BME280;60995;52.154;4.498;2023-04-02T03:02:55;101549.13;;;7.42;74.29
72414;BME280;60995;52.154;4.498;2023-04-02T03:05:17;101550.47;;;7.50;74.28
72414;BME280;60995;52.154;4.498;2023-04-02T03:07:37;101558.31;;;7.67;74.00
72414;BME280;60995;52.154;4.498;2023-04-02T03:10:02;101560.78;;;7.43;74.46
72414;BME280;60995;52.154;4.498;2023-04-02T03:12:49;101571.06;;;7.51;74.35
72414;BME280;60995;52.154;4.498;2023-04-02T03:18:41;101584.72;;;7.20;74.73
72414;BME280;60995;52.154;4.498;2023-04-02T03:24:00;101586.16;;;7.26;74.45
72414;BME280;60995;52.154;4.498;2023-04-02T03:26:36;101599.66;;;7.11;74.45
72414;BME280;60995;52.154;4.498;2023-04-02T03:29:10;101589.91;;;7.09;74.53
72414;BME280;60995;52.154;4.498;2023-04-02T03:34:25;101604.78;;;7.02;74.74
72414;BME280;60995;52.154;4.498;2023-04-02T03:36:57;101608.81;;;6.94;74.36
72414;BME280;60995;52.154;4.498;2023-04-02T03:39:30;101617.84;;;6.93;74.44
72414;BME280;60995;52.154;4.498;2023-04-02T03:42:06;101624.34;;;7.05;74.17
72414;BME280;60995;52.154;4.498;2023-04-02T03:47:38;101641.97;;;7.11;73.85
72414;BME280;60995;52.154;4.498;2023-04-02T03:50:10;101655.13;;;6.87;75.11
72414;BME280;60995;52.154;4.498;2023-04-02T03:52:35;101651.22;;;7.07;74.56
72414;BME280;60995;52.154;4.498;2023-04-02T03:54:55;101655.25;;;7.00;74.42
72414;BME280;60995;52.154;4.498;2023-04-02T04:02:33;101678.63;;;6.70;75.75
72414;BME280;60995;52.154;4.498;2023-04-02T04:04:56;101679.84;;;6.65;76.13
72414;BME280;60995;52.154;4.498;2023-04-02T04:07:42;101692.81;;;6.58;75.97
72414;BME280;60995;52.154;4.498;2023-04-02T04:10:00;101697.75;;;6.96;75.19
72414;BME280;60995;52.154;4.498;2023-04-02T04:12:46;101706.53;;;6.69;75.45
72414;BME280;60995;52.154;4.498;2023-04-02T04:17:58;101713.50;;;6.73;75.31
72414;BME280;60995;52.154;4.498;2023-04-02T04:20:21;101716.47;;;6.53;75.18
72414;BME280;60995;52.154;4.498;2023-04-02T04:22:40;101717.63;;;6.49;76.14
72414;BME280;60995;52.154;4.498;2023-04-02T04:24:58;101723.09;;;6.63;75.21
72414;BME280;60995;52.154;4.498;2023-04-02T04:29:54;101739.28;;;6.47;75.32
72414;BME280;60995;52.154;4.498;2023-04-02T04:32:30;101751.28;;;6.57;74.74
72414;BME280;60995;52.154;4.498;2023-04-02T04:34:51;101750.34;;;6.58;74.41
72414;BME280;60995;52.154;4.498;2023-04-02T04:37:19;101750.94;;;6.64;74.21
72414;BME280;60995;52.154;4.498;2023-04-02T04:39:48;101757.19;;;6.64;73.82
72414;BME280;60995;52.154;4.498;2023-04-02T04:42:30;101760.22;;;6.58;74.50
72414;BME280;60995;52.154;4.498;2023-04-02T04:48:04;101758.41;;;6.58;74.87
72414;BME280;60995;52.154;4.498;2023-04-02T04:50:36;101760.34;;;6.40;74.83
72414;BME280;60995;52.154;4.498;2023-04-02T04:53:16;101770.75;;;6.46;75.81
72414;BME280;60995;52.154;4.498;2023-04-02T04:55:38;101776.16;;;6.31;75.47
72414;BME280;60995;52.154;4.498;2023-04-02T04:58:02;101779.38;;;6.37;75.14
72414;BME280;60995;52.154;4.498;2023-04-02T05:03:27;101785.66;;;6.38;75.37
72414;BME280;60995;52.154;4.498;2023-04-02T05:05:48;101790.59;;;6.13;75.47
72414;BME280;60995;52.154;4.498;2023-04-02T05:08:21;101799.19;;;6.20;75.53
72414;BME280;60995;52.154;4.498;2023-04-02T05:13:23;101806.22;;;6.23;75.54
72414;BME280;60995;52.154;4.498;2023-04-02T05:20:48;101820.94;;;6.17;75.30
72414;BME280;60995;52.154;4.498;2023-04-02T05:23:28;101830.66;;;6.04;75.21
72414;BME280;60995;52.154;4.498;2023-04-02T05:26:03;101839.41;;;6.07;74.61
72414;BME280;60995;52.154;4.498;2023-04-02T05:28:46;101848.00;;;5.98;74.99
72414;BME280;60995;52.154;4.498;2023-04-02T05:31:21;101870.34;;;6.00;75.03
72414;BME280;60995;52.154;4.498;2023-04-02T05:33:44;101861.78;;;6.09;73.99
72414;BME280;60995;52.154;4.498;2023-04-02T05:36:10;101871.63;;;5.75;74.05
72414;BME280;60995;52.154;4.498;2023-04-02T05:38:35;101872.16;;;5.82;73.57
72414;BME280;60995;52.154;4.498;2023-04-02T05:41:36;101883.88;;;5.81;72.96
72414;BME280;60995;52.154;4.498;2023-04-02T05:46:44;101892.13;;;6.13;72.56
72414;BME280;60995;52.154;4.498;2023-04-02T05:49:08;101906.00;;;6.05;72.07
72414;BME280;60995;52.154;4.498;2023-04-02T05:51:41;101908.91;;;5.66;72.08
72414;BME280;60995;52.154;4.498;2023-04-02T05:54:03;101917.38;;;5.58;72.42
72414;BME280;60995;52.154;4.498;2023-04-02T05:56:28;101906.63;;;5.58;71.81
72414;BME280;60995;52.154;4.498;2023-04-02T05:58:56;101920.81;;;5.44;71.87
72414;BME280;60995;52.154;4.498;2023-04-02T06:01:39;101915.97;;;5.51;71.81
72414;BME280;60995;52.154;4.498;2023-04-02T06:04:30;101928.81;;;5.45;71.88
72414;BME280;60995;52.154;4.498;2023-04-02T06:07:03;101929.34;;;5.35;72.01
72414;BME280;60995;52.154;4.498;2023-04-02T06:09:49;101939.94;;;5.38;72.07
72414;BME280;60995;52.154;4.498;2023-04-02T06:12:21;101946.72;;;5.27;71.58
72414;BME280;60995;52.154;4.498;2023-04-02T06:14:53;101960.34;;;5.61;72.24
72414;BME280;60995;52.154;4.498;2023-04-02T06:17:18;101965.06;;;5.73;70.95
72414;BME280;60995;52.154;4.498;2023-04-02T06:19:37;101968.50;;;5.59;70.79
72414;BME280;60995;52.154;4.498;2023-04-02T06:21:59;101980.22;;;5.58;71.23
72414;BME280;60995;52.154;4.498;2023-04-02T06:24:27;101983.84;;;5.21;71.56
72414;BME280;60995;52.154;4.498;2023-04-02T06:26:53;101981.44;;;5.51;70.67
72414;BME280;60995;52.154;4.498;2023-04-02T06:29:31;101994.25;;;5.46;70.60
72414;BME280;60995;52.154;4.498;2023-04-02T06:31:56;101987.84;;;5.49;70.40
72414;BME280;60995;52.154;4.498;2023-04-02T06:34:18;101997.50;;;5.35;71.07
72414;BME280;60995;52.154;4.498;2023-04-02T06:36:36;101994.31;;;5.63;70.64
72414;BME280;60995;52.154;4.498;2023-04-02T06:38:56;102012.72;;;5.54;70.42
72414;BME280;60995;52.154;4.498;2023-04-02T06:41:20;102019.88;;;5.55;70.92
72414;BME280;60995;52.154;4.498;2023-04-02T06:43:43;102018.59;;;5.06;71.33
72414;BME280;60995;52.154;4.498;2023-04-02T06:46:34;102031.97;;;4.89;71.12
72414;BME280;60995;52.154;4.498;2023-04-02T06:49:12;102035.31;;;4.94;71.29
72414;BME280;60995;52.154;4.498;2023-04-02T06:51:35;102023.72;;;5.12;71.17
72414;BME280;60995;52.154;4.498;2023-04-02T06:53:55;102040.56;;;5.35;70.09
72414;BME280;60995;52.154;4.498;2023-04-02T06:56:33;102047.97;;;5.30;70.58
72414;BME280;60995;52.154;4.498;2023-04-02T06:58:57;102043.53;;;5.29;70.02
72414;BME280;60995;52.154;4.498;2023-04-02T07:01:21;102058.66;;;5.51;69.61
72414;BME280;60995;52.154;4.498;2023-04-02T07:03:42;102049.44;;;5.37;68.87
72414;BME280;60995;52.154;4.498;2023-04-02T07:06:01;102066.81;;;5.30;69.15
72414;BME280;60995;52.154;4.498;2023-04-02T07:08:18;102067.75;;;5.29;69.25
72414;BME280;60995;52.154;4.498;2023-04-02T07:10:35;102068.19;;;5.39;69.16
72414;BME280;60995;52.154;4.498;2023-04-02T07:12:52;102081.88;;;5.34;68.88
72414;BME280;60995;52.154;4.498;2023-04-02T07:15:14;102088.69;;;5.22;68.31
72414;BME280;60995;52.154;4.498;2023-04-02T07:17:31;102092.31;;;5.21;68.25
72414;BME280;60995;52.154;4.498;2023-04-02T07:19:47;102112.63;;;5.09;67.59
72414;BME280;60995;52.154;4.498;2023-04-02T07:22:04;102101.56;;;5.16;67.78
72414;BME280;60995;52.154;4.498;2023-04-02T07:24:20;102102.22;;;5.21;67.51
72414;BME280;60995;52.154;4.498;2023-04-02T07:26:37;102111.38;;;5.36;67.60
72414;BME280;60995;52.154;4.498;2023-04-02T07:28:55;102114.03;;;5.37;67.04
72414;BME280;60995;52.154;4.498;2023-04-02T07:33:31;102114.66;;;5.80;66.76
72414;BME280;60995;52.154;4.498;2023-04-02T07:35:48;102114.59;;;5.63;67.31
72414;BME280;60995;52.154;4.498;2023-04-02T07:38:05;102123.72;;;5.97;65.94
72414;BME280;60995;52.154;4.498;2023-04-02T07:40:21;102122.59;;;6.20;65.53
72414;BME280;60995;52.154;4.498;2023-04-02T07:42:39;102130.78;;;6.36;64.34
72414;BME280;60995;52.154;4.498;2023-04-02T07:44:55;102138.41;;;6.63;64.46
72414;BME280;60995;52.154;4.498;2023-04-02T07:47:11;102151.78;;;6.29;62.13
72414;BME280;60995;52.154;4.498;2023-04-02T07:49:27;102154.25;;;6.52;62.37
72414;BME280;60995;52.154;4.498;2023-04-02T07:51:44;102155.78;;;6.57;61.25
72414;BME280;60995;52.154;4.498;2023-04-02T07:54:00;102149.44;;;8.07;58.03
72414;BME280;60995;52.154;4.498;2023-04-02T07:56:20;102161.81;;;7.47;57.10
72414;BME280;60995;52.154;4.498;2023-04-02T07:58:37;102175.38;;;6.61;59.79
72414;BME280;60995;52.154;4.498;2023-04-02T08:00:54;102166.56;;;6.57;60.45
72414;BME280;60995;52.154;4.498;2023-04-02T08:03:12;102176.13;;;6.98;58.90
72414;BME280;60995;52.154;4.498;2023-04-02T08:05:28;102157.25;;;8.43;55.52
72414;BME280;60995;52.154;4.498;2023-04-02T08:07:53;102159.56;;;8.03;55.66
72414;BME280;60995;52.154;4.498;2023-04-02T08:10:11;102161.66;;;9.05;54.56
72414;BME280;60995;52.154;4.498;2023-04-02T08:12:27;102161.38;;;10.90;49.47
72414;BME280;60995;52.154;4.498;2023-04-02T08:14:44;102166.59;;;11.45;47.21
72414;BME280;60995;52.154;4.498;2023-04-02T08:17:01;102182.34;;;9.64;50.12
72414;BME280;60995;52.154;4.498;2023-04-02T08:19:18;102179.13;;;8.55;52.67
72414;BME280;60995;52.154;4.498;2023-04-02T08:21:34;102191.13;;;7.55;54.59
72414;BME280;60995;52.154;4.498;2023-04-02T08:23:51;102191.38;;;6.64;59.04
72414;BME280;60995;52.154;4.498;2023-04-02T08:26:08;102191.22;;;6.50;58.76
72414;BME280;60995;52.154;4.498;2023-04-02T08:28:24;102203.19;;;6.79;58.17
72414;BME280;60995;52.154;4.498;2023-04-02T08:30:41;102207.16;;;7.74;58.94
72414;BME280;60995;52.154;4.498;2023-04-02T08:32:57;102213.63;;;8.03;55.54
72414;BME280;60995;52.154;4.498;2023-04-02T08:35:15;102224.69;;;7.83;56.80
72414;BME280;60995;52.154;4.498;2023-04-02T08:37:31;102228.88;;;8.36;56.16
72414;BME280;60995;52.154;4.498;2023-04-02T08:39:48;102228.44;;;8.44;54.64
72414;BME280;60995;52.154;4.498;2023-04-02T08:42:21;102226.78;;;7.77;56.77
72414;BME280;60995;52.154;4.498;2023-04-02T08:47:12;102244.91;;;7.42;56.49
72414;BME280;60995;52.154;4.498;2023-04-02T08:52:04;102249.44;;;8.07;54.86
72414;BME280;60995;52.154;4.498;2023-04-02T08:54:21;102239.06;;;9.82;50.54
72414;BME280;60995;52.154;4.498;2023-04-02T08:56:56;102243.84;;;10.62;47.31
72414;BME280;60995;52.154;4.498;2023-04-02T09:05:22;102253.63;;;11.43;45.28
72414;BME280;60995;52.154;4.498;2023-04-02T09:07:45;102265.59;;;11.66;44.07
72414;BME280;60995;52.154;4.498;2023-04-02T09:10:03;102268.00;;;11.71;43.94
72414;BME280;60995;52.154;4.498;2023-04-02T09:12:25;102271.81;;;11.81;44.14
72414;BME280;60995;52.154;4.498;2023-04-02T09:14:54;102266.63;;;13.36;41.68
72414;BME280;60995;52.154;4.498;2023-04-02T09:17:26;102272.34;;;14.01;38.81
72414;BME280;60995;52.154;4.498;2023-04-02T09:20:28;102280.25;;;13.36;40.17
72414;BME280;60995;52.154;4.498;2023-04-02T09:22:32;102285.06;;;12.97;39.66
72414;BME280;60995;52.154;4.498;2023-04-02T09:24:53;102293.97;;;12.51;40.97
72414;BME280;60995;52.154;4.498;2023-04-02T09:27:20;102286.03;;;12.96;39.96
72414;BME280;60995;52.154;4.498;2023-04-02T09:29:43;102293.81;;;12.65;40.33
72414;BME280;60995;52.154;4.498;2023-04-02T09:32:31;102294.00;;;12.14;41.81
72414;BME280;60995;52.154;4.498;2023-04-02T09:35:19;102290.16;;;12.53;40.66
72414;BME280;60995;52.154;4.498;2023-04-02T09:37:39;102288.44;;;12.88;40.07
72414;BME280;60995;52.154;4.498;2023-04-02T09:42:47;102297.34;;;12.79;40.25
72414;BME280;60995;52.154;4.498;2023-04-02T09:47:38;102299.91;;;13.76;39.28
72414;BME280;60995;52.154;4.498;2023-04-02T09:50:12;102311.28;;;14.93;36.43
72414;BME280;60995;52.154;4.498;2023-04-02T09:52:41;102305.84;;;14.15;37.36
72414;BME280;60995;52.154;4.498;2023-04-02T09:55:27;102337.25;;;12.43;40.08
72414;BME280;60995;52.154;4.498;2023-04-02T09:57:47;102322.44;;;12.34;40.97
72414;BME280;60995;52.154;4.498;2023-04-02T10:00:21;102305.84;;;12.50;40.82
72414;BME280;60995;52.154;4.498;2023-04-02T10:02:42;102315.66;;;12.39;40.88
72414;BME280;60995;52.154;4.498;2023-04-02T10:05:05;102310.06;;;12.17;41.14
72414;BME280;60995;52.154;4.498;2023-04-02T10:10:14;102321.59;;;12.57;42.09
72414;BME280;60995;52.154;4.498;2023-04-02T10:12:40;102327.75;;;12.48;41.69
72414;BME280;60995;52.154;4.498;2023-04-02T10:14:59;102330.41;;;14.03;38.42
72414;BME280;60995;52.154;4.498;2023-04-02T10:17:24;102336.19;;;11.81;42.79
72414;BME280;60995;52.154;4.498;2023-04-02T10:19:55;102341.88;;;13.26;41.64
72414;BME280;60995;52.154;4.498;2023-04-02T10:22:20;102335.09;;;14.01;39.57
72414;BME280;60995;52.154;4.498;2023-04-02T10:24:38;102336.34;;;13.75;40.24
72414;BME280;60995;52.154;4.498;2023-04-02T10:27:06;102344.78;;;14.28;38.17
72414;BME280;60995;52.154;4.498;2023-04-02T10:35:47;102358.88;;;13.65;39.48
72414;BME280;60995;52.154;4.498;2023-04-02T10:41:36;102364.69;;;14.97;36.35
72414;BME280;60995;52.154;4.498;2023-04-02T10:44:16;102363.78;;;14.07;37.69
72414;BME280;60995;52.154;4.498;2023-04-02T10:47:02;102386.13;;;14.58;36.94
72414;BME280;60995;52.154;4.498;2023-04-02T10:50:06;102384.00;;;12.98;40.18
72414;BME280;60995;52.154;4.498;2023-04-02T10:52:46;102385.97;;;13.44;39.67
72414;BME280;60995;52.154;4.498;2023-04-02T10:55:27;102387.66;;;12.22;42.39
72414;BME280;60995;52.154;4.498;2023-04-02T10:57:49;102385.97;;;14.02;38.36
72414;BME280;60995;52.154;4.498;2023-04-02T11:00:13;102393.38;;;13.18;39.70
72414;BME280;60995;52.154;4.498;2023-04-02T11:02:57;102393.03;;;12.98;40.28
72414;BME280;60995;52.154;4.498;2023-04-02T11:05:46;102398.44;;;13.11;39.14
72414;BME280;60995;52.154;4.498;2023-04-02T11:08:22;102398.75;;;12.58;39.90
72414;BME280;60995;52.154;4.498;2023-04-02T11:11:09;102397.50;;;13.23;39.33
72414;BME280;60995;52.154;4.498;2023-04-02T11:13:52;102411.53;;;12.06;41.58
72414;BME280;60995;52.154;4.498;2023-04-02T11:16:13;102412.81;;;12.26;40.85
72414;BME280;60995;52.154;4.498;2023-04-02T11:18:32;102408.47;;;13.11;39.94
72414;BME280;60995;52.154;4.498;2023-04-02T11:20:58;102406.69;;;13.47;40.49
72414;BME280;60995;52.154;4.498;2023-04-02T11:23:18;102402.38;;;14.14;38.24
72414;BME280;60995;52.154;4.498;2023-04-02T11:25:35;102420.22;;;14.86;37.60
72414;BME280;60995;52.154;4.498;2023-04-02T11:27:52;102417.41;;;13.72;39.22
72414;BME280;60995;52.154;4.498;2023-04-02T11:32:34;102421.38;;;12.96;40.81
72414;BME280;60995;52.154;4.498;2023-04-02T11:37:47;102418.19;;;13.02;41.76
72414;BME280;60995;52.154;4.498;2023-04-02T11:42:29;102409.53;;;12.84;41.75
72414;BME280;60995;52.154;4.498;2023-04-02T11:44:51;102411.34;;;12.96;42.46
72414;BME280;60995;52.154;4.498;2023-04-02T11:49:38;102430.75;;;11.50;43.19
72414;BME280;60995;52.154;4.498;2023-04-02T11:52:33;102422.84;;;12.38;43.15
72414;BME280;60995;52.154;4.498;2023-04-02T11:55:31;102430.34;;;13.22;39.94
72414;BME280;60995;52.154;4.498;2023-04-02T11:57:56;102438.22;;;11.73;43.91
72414;BME280;60995;52.154;4.498;2023-04-02T12:03:28;102447.53;;;12.35;42.25
72414;BME280;60995;52.154;4.498;2023-04-02T12:11:44;102463.59;;;11.47;44.23
72414;BME280;60995;52.154;4.498;2023-04-02T12:17:03;102459.56;;;11.92;43.14
72414;BME280;60995;52.154;4.498;2023-04-02T12:19:29;102466.16;;;12.16;41.73
72414;BME280;60995;52.154;4.498;2023-04-02T12:21:47;102462.88;;;12.11;42.47
72414;BME280;60995;52.154;4.498;2023-04-02T12:24:04;102473.78;;;12.49;41.88
72414;BME280;60995;52.154;4.498;2023-04-02T12:26:35;102464.84;;;12.34;43.02
72414;BME280;60995;52.154;4.498;2023-04-02T12:28:52;102478.50;;;11.94;43.36
72414;BME280;60995;52.154;4.498;2023-04-02T12:31:14;102466.94;;;11.78;43.92
72414;BME280;60995;52.154;4.498;2023-04-02T12:33:38;102486.88;;;11.51;44.41
72414;BME280;60995;52.154;4.498;2023-04-02T12:35:57;102475.09;;;11.37;44.10
72414;BME280;60995;52.154;4.498;2023-04-02T12:38:28;102458.34;;;10.89;45.48
72414;BME280;60995;52.154;4.498;2023-04-02T12:41:00;102472.09;;;11.00;46.73
72414;BME280;60995;52.154;4.498;2023-04-02T12:43:33;102465.53;;;10.90;45.92
72414;BME280;60995;52.154;4.498;2023-04-02T12:45:54;102470.56;;;10.67;46.01
72414;BME280;60995;52.154;4.498;2023-04-02T12:48:16;102461.63;;;10.94;46.23
72414;BME280;60995;52.154;4.498;2023-04-02T12:50:33;102470.44;;;11.25;46.16
72414;BME280;60995;52.154;4.498;2023-04-02T12:52:51;102482.97;;;10.86;45.26
72414;BME280;60995;52.154;4.498;2023-04-02T12:55:21;102479.84;;;10.34;46.31
72414;BME280;60995;52.154;4.498;2023-04-02T12:57:39;102491.53;;;10.80;46.18
72414;BME280;60995;52.154;4.498;2023-04-02T12:59:57;102487.06;;;10.64;47.45
72414;BME280;60995;52.154;4.498;2023-04-02T13:02:20;102487.81;;;10.81;46.17
72414;BME280;60995;52.154;4.498;2023-04-02T13:04:46;102499.25;;;10.71;45.93
72414;BME280;60995;52.154;4.498;2023-04-02T13:07:15;102495.97;;;10.37;46.46
72414;BME280;60995;52.154;4.498;2023-04-02T13:09:35;102521.97;;;10.56;45.72
72414;BME280;60995;52.154;4.498;2023-04-02T13:12:00;102502.75;;;10.73;47.49
72414;BME280;60995;52.154;4.498;2023-04-02T13:14:19;102503.53;;;10.90;45.81
72414;BME280;60995;52.154;4.498;2023-04-02T13:16:39;102516.50;;;11.14;45.95
72414;BME280;60995;52.154;4.498;2023-04-02T13:21:47;102508.38;;;10.99;46.08
72414;BME280;60995;52.154;4.498;2023-04-02T13:24:09;102504.41;;;11.32;46.16
72414;BME280;60995;52.154;4.498;2023-04-02T13:26:31;102505.66;;;10.99;45.30
72414;BME280;60995;52.154;4.498;2023-04-02T13:31:51;102513.97;;;10.96;47.05
72414;BME280;60995;52.154;4.498;2023-04-02T13:34:09;102505.09;;;10.94;47.56
72414;BME280;60995;52.154;4.498;2023-04-02T13:36:25;102514.56;;;10.87;46.85
72414;BME280;60995;52.154;4.498;2023-04-02T13:38:44;102498.28;;;10.87;47.70
72414;BME280;60995;52.154;4.498;2023-04-02T13:41:00;102505.75;;;10.69;47.89
72414;BME280;60995;52.154;4.498;2023-04-02T13:43:18;102507.41;;;11.00;48.50
72414;BME280;60995;52.154;4.498;2023-04-02T13:45:36;102506.03;;;10.93;46.17
72414;BME280;60995;52.154;4.498;2023-04-02T13:47:54;102505.69;;;10.85;45.36
72414;BME280;60995;52.154;4.498;2023-04-02T13:50:21;102501.22;;;10.69;45.99
72414;BME280;60995;52.154;4.498;2023-04-02T13:52:38;102516.72;;;10.53;46.80
72414;BME280;60995;52.154;4.498;2023-04-02T13:54:55;102523.22;;;10.79;47.03
72414;BME280;60995;52.154;4.498;2023-04-02T13:57:16;102515.16;;;10.78;47.70
72414;BME280;60995;52.154;4.498;2023-04-02T13:59:33;102509.69;;;11.06;47.36
72414;BME280;60995;52.154;4.498;2023-04-02T14:01:52;102518.63;;;11.08;46.97
72414;BME280;60995;52.154;4.498;2023-04-02T14:04:20;102525.53;;;11.00;46.78
72414;BME280;60995;52.154;4.498;2023-04-02T14:30:04;102558.22;;;10.69;46.90
72414;BME280;60995;52.154;4.498;2023-04-02T14:32:58;102544.06;;;11.07;46.74
72414;BME280;60995;52.154;4.498;2023-04-02T14:35:34;102551.72;;;11.15;45.32
72414;BME280;60995;52.154;4.498;2023-04-02T14:43:14;102571.00;;;11.39;46.54
72414;BME280;60995;52.154;4.498;2023-04-02T14:45:53;102563.53;;;11.14;47.23
72414;BME280;60995;52.154;4.498;2023-04-02T14:50:40;102561.88;;;11.12;47.00
72414;BME280;60995;52.154;4.498;2023-04-02T14:53:03;102565.50;;;10.98;46.94
72414;BME280;60995;52.154;4.498;2023-04-02T14:55:35;102576.66;;;11.07;46.78
72414;BME280;60995;52.154;4.498;2023-04-02T14:58:00;102573.34;;;11.17;46.03
72414;BME280;60995;52.154;4.498;2023-04-02T15:00:40;102574.31;;;10.87;47.02
72414;BME280;60995;52.154;4.498;2023-04-02T15:03:23;102583.06;;;10.92;47.46
72414;BME280;60995;52.154;4.498;2023-04-02T15:05:47;102572.19;;;10.92;46.57
72414;BME280;60995;52.154;4.498;2023-04-02T15:08:49;102581.13;;;10.94;47.13
72414;BME280;60995;52.154;4.498;2023-04-02T15:13:54;102579.00;;;10.85;46.58
72414;BME280;60995;52.154;4.498;2023-04-02T15:16:21;102576.66;;;10.93;46.62
72414;BME280;60995;52.154;4.498;2023-04-02T15:18:41;102587.31;;;10.82;46.80
72414;BME280;60995;52.154;4.498;2023-04-02T15:21:18;102592.16;;;10.91;47.37
72414;BME280;60995;52.154;4.498;2023-04-02T15:24:01;102594.81;;;10.92;47.24
72414;BME280;60995;52.154;4.498;2023-04-02T15:32:01;102587.50;;;11.07;47.91